sensor_id;sensor_type;location;lat;lon;timestamp;P1;durP1;ratioP1;P2;durP2;ratioP2
52684;SDS011;43757;46.052;13.614;2022-10-17T18:34:06;32.78;;;13.57;;
52684;SDS011;43757;46.052;13.614;2022-10-17T18:36:32;30.02;;;14.13;;
52684;SDS011;43757;46.052;13.614;2022-10-17T18:39:12;29.58;;;15.75;;
52684;SDS011;43757;46.052;13.614;2022-10-17T18:41:38;30.17;;;13.60;;
52684;SDS011;43757;46.052;13.614;2022-10-17T18:44:04;27.95;;;13.38;;
52684;SDS011;43757;46.052;13.614;2022-10-17T18:46:33;28.08;;;12.50;;
52684;SDS011;43757;46.052;13.614;2022-10-17T18:49:04;25.30;;;12.90;;
52684;SDS011;43757;46.052;13.614;2022-10-17T18:51:31;22.42;;;12.02;;
52684;SDS011;43757;46.052;13.614;2022-10-17T18:53:56;26.30;;;11.98;;
52684;SDS011;43757;46.052;13.614;2022-10-17T18:56:27;22.95;;;12.40;;
52684;SDS011;43757;46.052;13.614;2022-10-17T18:58:53;23.40;;;11.88;;
52684;SDS011;43757;46.052;13.614;2022-10-17T19:01:20;24.73;;;11.65;;
52684;SDS011;43757;46.052;13.614;2022-10-17T19:03:48;23.20;;;11.35;;
52684;SDS011;43757;46.052;13.614;2022-10-17T19:06:16;25.05;;;12.27;;
52684;SDS011;43757;46.052;13.614;2022-10-17T19:08:43;22.05;;;11.93;;
52684;SDS011;43757;46.052;13.614;2022-10-17T19:13:39;19.42;;;9.98;;
52684;SDS011;43757;46.052;13.614;2022-10-17T19:16:06;23.75;;;11.73;;
52684;SDS011;43757;46.052;13.614;2022-10-17T19:18:37;23.73;;;12.25;;
52684;SDS011;43757;46.052;13.614;2022-10-17T19:21:03;20.58;;;10.15;;
52684;SDS011;43757;46.052;13.614;2022-10-17T19:23:30;19.88;;;11.10;;
52684;SDS011;43757;46.052;13.614;2022-10-17T19:28:29;22.70;;;10.05;;
52684;SDS011;43757;46.052;13.614;2022-10-17T19:30:55;19.02;;;10.10;;
52684;SDS011;43757;46.052;13.614;2022-10-17T19:33:21;20.52;;;9.65;;
52684;SDS011;43757;46.052;13.614;2022-10-17T19:35:53;16.85;;;10.68;;
52684;SDS011;43757;46.052;13.614;2022-10-17T19:38:22;22.80;;;11.63;;
52684;SDS011;43757;46.052;13.614;2022-10-17T19:40:48;20.52;;;9.82;;
52684;SDS011;43757;46.052;13.614;2022-10-17T19:43:14;18.75;;;9.80;;
52684;SDS011;43757;46.052;13.614;2022-10-17T19:45:39;17.75;;;10.13;;
52684;SDS011;43757;46.052;13.614;2022-10-17T19:48:05;21.23;;;10.60;;
52684;SDS011;43757;46.052;13.614;2022-10-17T19:50:31;20.00;;;9.90;;
52684;SDS011;43757;46.052;13.614;2022-10-17T19:52:56;22.10;;;10.77;;
52684;SDS011;43757;46.052;13.614;2022-10-17T19:55:22;20.20;;;10.02;;
52684;SDS011;43757;46.052;13.614;2022-10-17T19:57:47;19.42;;;10.25;;
52684;SDS011;43757;46.052;13.614;2022-10-17T20:00:13;24.27;;;10.82;;
52684;SDS011;43757;46.052;13.614;2022-10-17T20:02:39;19.58;;;9.52;;
52684;SDS011;43757;46.052;13.614;2022-10-17T20:05:05;22.30;;;10.95;;
52684;SDS011;43757;46.052;13.614;2022-10-17T20:07:39;19.05;;;9.82;;
52684;SDS011;43757;46.052;13.614;2022-10-17T20:10:06;18.45;;;10.30;;
52684;SDS011;43757;46.052;13.614;2022-10-17T20:12:32;18.83;;;9.90;;
52684;SDS011;43757;46.052;13.614;2022-10-17T20:17:23;19.00;;;10.30;;
52684;SDS011;43757;46.052;13.614;2022-10-17T20:19:49;17.77;;;9.38;;
52684;SDS011;43757;46.052;13.614;2022-10-17T20:22:15;17.58;;;9.65;;
52684;SDS011;43757;46.052;13.614;2022-10-17T20:24:40;23.05;;;9.82;;
52684;SDS011;43757;46.052;13.614;2022-10-17T20:27:06;21.02;;;9.60;;
52684;SDS011;43757;46.052;13.614;2022-10-17T20:29:32;21.63;;;11.73;;
52684;SDS011;43757;46.052;13.614;2022-10-17T20:31:57;18.92;;;9.50;;
52684;SDS011;43757;46.052;13.614;2022-10-17T20:34:23;22.52;;;10.98;;
52684;SDS011;43757;46.052;13.614;2022-10-17T20:36:49;20.85;;;9.18;;
52684;SDS011;43757;46.052;13.614;2022-10-17T20:39:15;21.20;;;11.30;;
52684;SDS011;43757;46.052;13.614;2022-10-17T20:41:42;18.63;;;9.05;;
52684;SDS011;43757;46.052;13.614;2022-10-17T20:44:08;16.27;;;9.15;;
52684;SDS011;43757;46.052;13.614;2022-10-17T20:46:35;20.13;;;9.82;;
52684;SDS011;43757;46.052;13.614;2022-10-17T20:49:02;15.48;;;8.65;;
52684;SDS011;43757;46.052;13.614;2022-10-17T20:51:29;17.35;;;9.27;;
52684;SDS011;43757;46.052;13.614;2022-10-17T20:53:55;16.83;;;9.23;;
52684;SDS011;43757;46.052;13.614;2022-10-17T20:56:22;19.00;;;9.65;;
52684;SDS011;43757;46.052;13.614;2022-10-17T20:58:53;17.55;;;8.27;;
52684;SDS011;43757;46.052;13.614;2022-10-17T21:01:24;14.98;;;8.23;;
52684;SDS011;43757;46.052;13.614;2022-10-17T21:03:50;18.73;;;8.80;;
52684;SDS011;43757;46.052;13.614;2022-10-17T21:08:43;18.50;;;9.10;;
52684;SDS011;43757;46.052;13.614;2022-10-17T21:11:13;15.23;;;8.48;;
52684;SDS011;43757;46.052;13.614;2022-10-17T21:13:41;16.48;;;8.30;;
52684;SDS011;43757;46.052;13.614;2022-10-17T21:16:11;15.15;;;8.57;;
52684;SDS011;43757;46.052;13.614;2022-10-17T21:18:38;16.77;;;9.02;;
52684;SDS011;43757;46.052;13.614;2022-10-17T21:21:08;17.38;;;8.45;;
52684;SDS011;43757;46.052;13.614;2022-10-17T21:23:40;15.20;;;7.78;;
52684;SDS011;43757;46.052;13.614;2022-10-17T21:26:07;19.13;;;9.02;;
52684;SDS011;43757;46.052;13.614;2022-10-17T21:28:36;13.52;;;7.22;;
52684;SDS011;43757;46.052;13.614;2022-10-17T21:33:39;13.93;;;8.13;;
52684;SDS011;43757;46.052;13.614;2022-10-17T21:36:06;16.73;;;7.95;;
52684;SDS011;43757;46.052;13.614;2022-10-17T21:38:35;19.35;;;9.55;;
52684;SDS011;43757;46.052;13.614;2022-10-17T21:41:03;21.00;;;10.35;;
52684;SDS011;43757;46.052;13.614;2022-10-17T21:43:30;16.40;;;8.43;;
52684;SDS011;43757;46.052;13.614;2022-10-17T21:46:00;17.77;;;8.63;;
52684;SDS011;43757;46.052;13.614;2022-10-17T21:48:29;17.17;;;8.85;;
52684;SDS011;43757;46.052;13.614;2022-10-17T21:50:59;13.45;;;8.10;;
52684;SDS011;43757;46.052;13.614;2022-10-17T21:53:26;14.45;;;8.25;;
52684;SDS011;43757;46.052;13.614;2022-10-17T21:55:52;16.20;;;8.93;;
52684;SDS011;43757;46.052;13.614;2022-10-17T21:58:18;19.25;;;9.68;;
52684;SDS011;43757;46.052;13.614;2022-10-17T22:00:45;17.85;;;8.60;;
52684;SDS011;43757;46.052;13.614;2022-10-17T22:03:11;16.55;;;9.38;;
52684;SDS011;43757;46.052;13.614;2022-10-17T22:05:39;15.38;;;7.97;;
52684;SDS011;43757;46.052;13.614;2022-10-17T22:08:05;15.57;;;8.02;;
52684;SDS011;43757;46.052;13.614;2022-10-17T22:10:31;14.75;;;8.40;;
52684;SDS011;43757;46.052;13.614;2022-10-17T22:12:59;16.05;;;8.65;;
52684;SDS011;43757;46.052;13.614;2022-10-17T22:15:25;18.23;;;8.52;;
52684;SDS011;43757;46.052;13.614;2022-10-17T22:17:51;19.27;;;9.40;;
52684;SDS011;43757;46.052;13.614;2022-10-17T22:20:16;17.92;;;7.95;;
52684;SDS011;43757;46.052;13.614;2022-10-17T22:22:42;13.90;;;8.02;;
52684;SDS011;43757;46.052;13.614;2022-10-17T22:25:08;15.18;;;8.07;;
52684;SDS011;43757;46.052;13.614;2022-10-17T22:27:33;18.58;;;9.27;;
52684;SDS011;43757;46.052;13.614;2022-10-17T22:29:59;16.58;;;8.35;;
52684;SDS011;43757;46.052;13.614;2022-10-17T22:32:24;14.32;;;7.25;;
52684;SDS011;43757;46.052;13.614;2022-10-17T22:34:50;14.95;;;7.75;;
52684;SDS011;43757;46.052;13.614;2022-10-17T22:37:16;16.15;;;8.90;;
52684;SDS011;43757;46.052;13.614;2022-10-17T22:39:41;12.77;;;7.03;;
52684;SDS011;43757;46.052;13.614;2022-10-17T22:42:07;14.48;;;7.07;;
52684;SDS011;43757;46.052;13.614;2022-10-17T22:44:33;14.75;;;7.22;;
52684;SDS011;43757;46.052;13.614;2022-10-17T22:46:58;14.10;;;7.82;;
52684;SDS011;43757;46.052;13.614;2022-10-17T22:49:24;13.38;;;7.43;;
52684;SDS011;43757;46.052;13.614;2022-10-17T22:51:49;14.50;;;7.50;;
52684;SDS011;43757;46.052;13.614;2022-10-17T22:54:15;15.07;;;8.05;;
52684;SDS011;43757;46.052;13.614;2022-10-17T22:56:40;14.40;;;7.40;;
52684;SDS011;43757;46.052;13.614;2022-10-17T22:59:06;15.20;;;8.13;;
52684;SDS011;43757;46.052;13.614;2022-10-17T23:01:31;14.48;;;7.25;;
52684;SDS011;43757;46.052;13.614;2022-10-17T23:03:57;16.98;;;8.68;;
52684;SDS011;43757;46.052;13.614;2022-10-17T23:06:22;14.57;;;8.50;;
52684;SDS011;43757;46.052;13.614;2022-10-17T23:08:48;12.52;;;7.38;;
52684;SDS011;43757;46.052;13.614;2022-10-17T23:11:14;12.52;;;7.35;;
52684;SDS011;43757;46.052;13.614;2022-10-17T23:13:40;12.57;;;7.55;;
52684;SDS011;43757;46.052;13.614;2022-10-17T23:16:06;13.75;;;7.38;;
52684;SDS011;43757;46.052;13.614;2022-10-17T23:18:32;13.52;;;7.90;;
52684;SDS011;43757;46.052;13.614;2022-10-17T23:20:58;16.15;;;8.10;;
52684;SDS011;43757;46.052;13.614;2022-10-17T23:23:23;13.88;;;8.02;;
52684;SDS011;43757;46.052;13.614;2022-10-17T23:25:49;13.65;;;7.97;;
52684;SDS011;43757;46.052;13.614;2022-10-17T23:28:15;13.98;;;7.50;;
52684;SDS011;43757;46.052;13.614;2022-10-17T23:33:08;14.35;;;7.00;;
52684;SDS011;43757;46.052;13.614;2022-10-17T23:35:35;15.65;;;7.30;;
52684;SDS011;43757;46.052;13.614;2022-10-17T23:38:01;13.55;;;7.20;;
52684;SDS011;43757;46.052;13.614;2022-10-17T23:40:27;15.98;;;7.93;;
52684;SDS011;43757;46.052;13.614;2022-10-17T23:42:53;12.55;;;7.43;;
52684;SDS011;43757;46.052;13.614;2022-10-17T23:45:19;14.38;;;7.13;;
52684;SDS011;43757;46.052;13.614;2022-10-17T23:47:44;14.15;;;7.53;;
52684;SDS011;43757;46.052;13.614;2022-10-17T23:50:10;14.45;;;7.30;;
52684;SDS011;43757;46.052;13.614;2022-10-17T23:52:36;12.52;;;7.68;;
52684;SDS011;43757;46.052;13.614;2022-10-17T23:55:01;13.82;;;8.45;;
52684;SDS011;43757;46.052;13.614;2022-10-17T23:57:27;12.57;;;7.20;;
52684;SDS011;43757;46.052;13.614;2022-10-17T23:59:52;12.82;;;7.22;;
